sensor_id;sensor_type;location;lat;lon;timestamp;P1;durP1;ratioP1;P2;durP2;ratioP2
12271;SDS011;6198;51.446;6.698;2022-09-01T00:01:49;4.67;;;2.27;;
12271;SDS011;6198;51.446;6.698;2022-09-01T00:04:17;4.30;;;2.40;;
12271;SDS011;6198;51.446;6.698;2022-09-01T00:06:44;4.67;;;2.13;;
12271;SDS011;6198;51.446;6.698;2022-09-01T00:09:12;4.27;;;2.43;;
12271;SDS011;6198;51.446;6.698;2022-09-01T00:11:39;4.40;;;2.40;;
12271;SDS011;6198;51.446;6.698;2022-09-01T00:14:05;5.50;;;2.30;;
12271;SDS011;6198;51.446;6.698;2022-09-01T00:16:32;6.77;;;1.93;;
12271;SDS011;6198;51.446;6.698;2022-09-01T00:18:57;4.33;;;2.20;;
12271;SDS011;6198;51.446;6.698;2022-09-01T00:21:31;2.67;;;1.80;;
12271;SDS011;6198;51.446;6.698;2022-09-01T00:23:58;2.77;;;2.07;;
12271;SDS011;6198;51.446;6.698;2022-09-01T00:26:24;2.93;;;1.90;;
12271;SDS011;6198;51.446;6.698;2022-09-01T00:28:50;5.43;;;3.00;;
12271;SDS011;6198;51.446;6.698;2022-09-01T00:31:16;5.37;;;2.80;;
12271;SDS011;6198;51.446;6.698;2022-09-01T00:33:43;4.60;;;2.40;;
12271;SDS011;6198;51.446;6.698;2022-09-01T00:36:09;8.47;;;2.73;;
12271;SDS011;6198;51.446;6.698;2022-09-01T00:38:35;6.80;;;2.70;;
12271;SDS011;6198;51.446;6.698;2022-09-01T00:41:02;3.57;;;2.40;;
12271;SDS011;6198;51.446;6.698;2022-09-01T00:46:09;4.70;;;2.20;;
12271;SDS011;6198;51.446;6.698;2022-09-01T00:48:36;3.63;;;2.27;;
12271;SDS011;6198;51.446;6.698;2022-09-01T00:51:03;4.07;;;2.40;;
12271;SDS011;6198;51.446;6.698;2022-09-01T00:53:30;3.87;;;2.23;;
12271;SDS011;6198;51.446;6.698;2022-09-01T00:55:57;7.50;;;2.13;;
12271;SDS011;6198;51.446;6.698;2022-09-01T00:58:23;4.67;;;2.23;;
12271;SDS011;6198;51.446;6.698;2022-09-01T01:00:48;7.30;;;2.17;;
12271;SDS011;6198;51.446;6.698;2022-09-01T01:03:15;5.30;;;2.30;;
12271;SDS011;6198;51.446;6.698;2022-09-01T01:05:43;3.97;;;2.30;;
12271;SDS011;6198;51.446;6.698;2022-09-01T01:08:12;3.93;;;2.27;;
12271;SDS011;6198;51.446;6.698;2022-09-01T01:10:43;4.83;;;2.30;;
12271;SDS011;6198;51.446;6.698;2022-09-01T01:13:15;3.53;;;2.00;;
12271;SDS011;6198;51.446;6.698;2022-09-01T01:15:42;5.07;;;2.10;;
12271;SDS011;6198;51.446;6.698;2022-09-01T01:18:09;3.63;;;2.47;;
12271;SDS011;6198;51.446;6.698;2022-09-01T01:20:35;2.73;;;1.83;;
12271;SDS011;6198;51.446;6.698;2022-09-01T01:23:23;5.03;;;2.03;;
12271;SDS011;6198;51.446;6.698;2022-09-01T01:25:51;4.03;;;2.30;;
12271;SDS011;6198;51.446;6.698;2022-09-01T01:28:19;3.67;;;2.50;;
12271;SDS011;6198;51.446;6.698;2022-09-01T01:30:48;3.43;;;2.13;;
12271;SDS011;6198;51.446;6.698;2022-09-01T01:33:21;6.97;;;2.20;;
12271;SDS011;6198;51.446;6.698;2022-09-01T01:35:48;7.77;;;2.13;;
12271;SDS011;6198;51.446;6.698;2022-09-01T01:38:15;4.63;;;2.13;;
12271;SDS011;6198;51.446;6.698;2022-09-01T01:40:41;2.50;;;1.97;;
12271;SDS011;6198;51.446;6.698;2022-09-01T01:43:07;5.17;;;2.20;;
12271;SDS011;6198;51.446;6.698;2022-09-01T01:45:35;2.23;;;1.80;;
12271;SDS011;6198;51.446;6.698;2022-09-01T01:48:01;4.53;;;2.30;;
12271;SDS011;6198;51.446;6.698;2022-09-01T01:50:32;4.93;;;1.90;;
12271;SDS011;6198;51.446;6.698;2022-09-01T01:52:59;6.23;;;2.17;;
12271;SDS011;6198;51.446;6.698;2022-09-01T01:55:27;3.00;;;1.90;;
12271;SDS011;6198;51.446;6.698;2022-09-01T01:57:55;2.97;;;1.87;;
12271;SDS011;6198;51.446;6.698;2022-09-01T02:00:22;2.23;;;2.00;;
12271;SDS011;6198;51.446;6.698;2022-09-01T02:02:49;4.80;;;2.23;;
12271;SDS011;6198;51.446;6.698;2022-09-01T02:05:19;5.93;;;2.17;;
12271;SDS011;6198;51.446;6.698;2022-09-01T02:07:47;4.53;;;2.17;;
12271;SDS011;6198;51.446;6.698;2022-09-01T02:10:14;3.43;;;1.93;;
12271;SDS011;6198;51.446;6.698;2022-09-01T02:12:40;2.63;;;1.87;;
12271;SDS011;6198;51.446;6.698;2022-09-01T02:15:07;2.13;;;1.80;;
12271;SDS011;6198;51.446;6.698;2022-09-01T02:17:33;5.03;;;2.20;;
12271;SDS011;6198;51.446;6.698;2022-09-01T02:19:59;3.17;;;1.93;;
12271;SDS011;6198;51.446;6.698;2022-09-01T02:22:25;4.33;;;2.20;;
12271;SDS011;6198;51.446;6.698;2022-09-01T02:24:52;5.43;;;2.47;;
12271;SDS011;6198;51.446;6.698;2022-09-01T02:27:20;7.40;;;2.33;;
12271;SDS011;6198;51.446;6.698;2022-09-01T02:29:49;2.27;;;2.07;;
12271;SDS011;6198;51.446;6.698;2022-09-01T02:32:16;3.03;;;2.10;;
12271;SDS011;6198;51.446;6.698;2022-09-01T02:34:43;4.40;;;2.30;;
12271;SDS011;6198;51.446;6.698;2022-09-01T02:37:10;3.90;;;1.90;;
12271;SDS011;6198;51.446;6.698;2022-09-01T02:39:35;4.57;;;2.40;;
12271;SDS011;6198;51.446;6.698;2022-09-01T02:42:01;5.93;;;2.60;;
12271;SDS011;6198;51.446;6.698;2022-09-01T02:44:28;6.17;;;2.80;;
12271;SDS011;6198;51.446;6.698;2022-09-01T02:46:55;4.97;;;2.50;;
12271;SDS011;6198;51.446;6.698;2022-09-01T02:49:22;6.27;;;2.10;;
12271;SDS011;6198;51.446;6.698;2022-09-01T02:51:50;7.83;;;1.87;;
12271;SDS011;6198;51.446;6.698;2022-09-01T02:54:18;2.83;;;2.10;;
12271;SDS011;6198;51.446;6.698;2022-09-01T02:56:46;3.40;;;2.27;;
12271;SDS011;6198;51.446;6.698;2022-09-01T02:59:17;4.53;;;2.47;;
12271;SDS011;6198;51.446;6.698;2022-09-01T03:01:45;5.97;;;2.50;;
12271;SDS011;6198;51.446;6.698;2022-09-01T03:04:12;3.57;;;2.37;;
12271;SDS011;6198;51.446;6.698;2022-09-01T03:06:38;3.93;;;2.20;;
12271;SDS011;6198;51.446;6.698;2022-09-01T03:09:06;6.00;;;2.70;;
12271;SDS011;6198;51.446;6.698;2022-09-01T03:11:33;6.67;;;2.30;;
12271;SDS011;6198;51.446;6.698;2022-09-01T03:13:59;3.30;;;2.60;;
12271;SDS011;6198;51.446;6.698;2022-09-01T03:16:26;4.93;;;2.40;;
12271;SDS011;6198;51.446;6.698;2022-09-01T03:18:54;3.67;;;2.20;;
12271;SDS011;6198;51.446;6.698;2022-09-01T03:21:20;4.90;;;2.10;;
12271;SDS011;6198;51.446;6.698;2022-09-01T03:23:47;4.97;;;2.47;;
12271;SDS011;6198;51.446;6.698;2022-09-01T03:26:14;3.27;;;2.10;;
12271;SDS011;6198;51.446;6.698;2022-09-01T03:28:42;5.90;;;2.17;;
12271;SDS011;6198;51.446;6.698;2022-09-01T03:31:08;5.43;;;2.40;;
12271;SDS011;6198;51.446;6.698;2022-09-01T03:33:34;5.03;;;2.47;;
12271;SDS011;6198;51.446;6.698;2022-09-01T03:36:00;5.87;;;2.40;;
12271;SDS011;6198;51.446;6.698;2022-09-01T03:38:26;4.57;;;2.50;;
12271;SDS011;6198;51.446;6.698;2022-09-01T03:40:59;6.23;;;2.30;;
12271;SDS011;6198;51.446;6.698;2022-09-01T03:43:26;5.50;;;2.10;;
12271;SDS011;6198;51.446;6.698;2022-09-01T03:45:53;4.33;;;2.63;;
12271;SDS011;6198;51.446;6.698;2022-09-01T03:48:20;2.93;;;2.30;;
12271;SDS011;6198;51.446;6.698;2022-09-01T03:50:46;5.97;;;2.40;;
12271;SDS011;6198;51.446;6.698;2022-09-01T03:53:15;2.80;;;2.20;;
12271;SDS011;6198;51.446;6.698;2022-09-01T03:55:42;7.03;;;2.97;;
12271;SDS011;6198;51.446;6.698;2022-09-01T03:58:09;5.13;;;2.23;;
12271;SDS011;6198;51.446;6.698;2022-09-01T04:00:43;5.43;;;2.47;;
12271;SDS011;6198;51.446;6.698;2022-09-01T04:03:10;7.07;;;2.17;;
12271;SDS011;6198;51.446;6.698;2022-09-01T04:05:37;4.30;;;2.17;;
12271;SDS011;6198;51.446;6.698;2022-09-01T04:08:05;4.13;;;2.60;;
12271;SDS011;6198;51.446;6.698;2022-09-01T04:10:32;9.60;;;2.73;;
12271;SDS011;6198;51.446;6.698;2022-09-01T04:12:59;3.43;;;2.30;;
12271;SDS011;6198;51.446;6.698;2022-09-01T04:15:25;7.63;;;2.70;;
12271;SDS011;6198;51.446;6.698;2022-09-01T04:17:52;5.67;;;2.33;;
12271;SDS011;6198;51.446;6.698;2022-09-01T04:20:44;4.90;;;2.20;;
12271;SDS011;6198;51.446;6.698;2022-09-01T04:23:17;5.80;;;2.80;;
12271;SDS011;6198;51.446;6.698;2022-09-01T04:26:02;4.37;;;2.50;;
12271;SDS011;6198;51.446;6.698;2022-09-01T04:28:38;3.80;;;2.47;;
12271;SDS011;6198;51.446;6.698;2022-09-01T04:31:05;5.37;;;2.47;;
12271;SDS011;6198;51.446;6.698;2022-09-01T04:33:34;7.00;;;2.80;;
12271;SDS011;6198;51.446;6.698;2022-09-01T04:36:05;2.67;;;2.00;;
12271;SDS011;6198;51.446;6.698;2022-09-01T04:38:31;5.27;;;2.20;;
12271;SDS011;6198;51.446;6.698;2022-09-01T04:41:04;3.20;;;2.67;;
12271;SDS011;6198;51.446;6.698;2022-09-01T04:43:31;3.00;;;2.03;;
12271;SDS011;6198;51.446;6.698;2022-09-01T04:45:57;4.17;;;2.40;;
12271;SDS011;6198;51.446;6.698;2022-09-01T04:48:23;8.50;;;2.27;;
12271;SDS011;6198;51.446;6.698;2022-09-01T04:50:50;4.83;;;2.73;;
12271;SDS011;6198;51.446;6.698;2022-09-01T04:53:17;4.83;;;2.50;;
12271;SDS011;6198;51.446;6.698;2022-09-01T04:55:43;4.37;;;2.50;;
12271;SDS011;6198;51.446;6.698;2022-09-01T04:58:10;5.90;;;2.70;;
12271;SDS011;6198;51.446;6.698;2022-09-01T05:00:38;7.57;;;2.63;;
12271;SDS011;6198;51.446;6.698;2022-09-01T05:03:04;8.27;;;2.80;;
12271;SDS011;6198;51.446;6.698;2022-09-01T05:05:41;3.73;;;2.30;;
12271;SDS011;6198;51.446;6.698;2022-09-01T05:08:08;4.53;;;2.47;;
12271;SDS011;6198;51.446;6.698;2022-09-01T05:10:38;4.67;;;2.47;;
12271;SDS011;6198;51.446;6.698;2022-09-01T05:13:05;5.50;;;2.90;;
12271;SDS011;6198;51.446;6.698;2022-09-01T05:15:34;4.63;;;2.87;;
12271;SDS011;6198;51.446;6.698;2022-09-01T05:18:00;10.17;;;2.30;;
12271;SDS011;6198;51.446;6.698;2022-09-01T05:20:26;10.77;;;2.80;;
12271;SDS011;6198;51.446;6.698;2022-09-01T05:22:54;3.53;;;2.47;;
12271;SDS011;6198;51.446;6.698;2022-09-01T05:25:20;8.90;;;2.63;;
12271;SDS011;6198;51.446;6.698;2022-09-01T05:27:47;3.43;;;2.70;;
12271;SDS011;6198;51.446;6.698;2022-09-01T05:30:16;8.77;;;2.50;;
12271;SDS011;6198;51.446;6.698;2022-09-01T05:32:43;5.50;;;2.30;;
12271;SDS011;6198;51.446;6.698;2022-09-01T05:35:13;8.77;;;2.60;;
12271;SDS011;6198;51.446;6.698;2022-09-01T05:37:39;2.97;;;2.13;;
12271;SDS011;6198;51.446;6.698;2022-09-01T05:40:08;10.23;;;2.77;;
12271;SDS011;6198;51.446;6.698;2022-09-01T05:42:40;3.47;;;2.43;;
12271;SDS011;6198;51.446;6.698;2022-09-01T05:45:06;2.47;;;2.20;;
12271;SDS011;6198;51.446;6.698;2022-09-01T05:47:34;4.00;;;2.10;;
12271;SDS011;6198;51.446;6.698;2022-09-01T05:50:02;7.23;;;2.40;;
12271;SDS011;6198;51.446;6.698;2022-09-01T05:52:30;7.53;;;2.30;;
12271;SDS011;6198;51.446;6.698;2022-09-01T05:54:58;5.63;;;2.40;;
12271;SDS011;6198;51.446;6.698;2022-09-01T05:57:25;4.93;;;2.33;;
12271;SDS011;6198;51.446;6.698;2022-09-01T05:59:51;5.73;;;2.60;;
12271;SDS011;6198;51.446;6.698;2022-09-01T06:02:20;11.87;;;3.00;;
12271;SDS011;6198;51.446;6.698;2022-09-01T06:04:47;5.00;;;2.40;;
12271;SDS011;6198;51.446;6.698;2022-09-01T06:07:14;6.93;;;2.77;;
12271;SDS011;6198;51.446;6.698;2022-09-01T06:09:42;6.87;;;2.93;;
12271;SDS011;6198;51.446;6.698;2022-09-01T06:12:09;8.87;;;3.10;;
12271;SDS011;6198;51.446;6.698;2022-09-01T06:14:41;6.37;;;2.60;;
12271;SDS011;6198;51.446;6.698;2022-09-01T06:17:08;7.83;;;2.90;;
12271;SDS011;6198;51.446;6.698;2022-09-01T06:19:35;6.53;;;2.30;;
12271;SDS011;6198;51.446;6.698;2022-09-01T06:22:01;5.90;;;2.53;;
12271;SDS011;6198;51.446;6.698;2022-09-01T06:24:27;4.37;;;2.57;;
12271;SDS011;6198;51.446;6.698;2022-09-01T06:26:53;10.77;;;2.80;;
12271;SDS011;6198;51.446;6.698;2022-09-01T06:29:19;4.07;;;2.30;;
12271;SDS011;6198;51.446;6.698;2022-09-01T06:31:45;7.00;;;2.73;;
12271;SDS011;6198;51.446;6.698;2022-09-01T06:34:15;6.93;;;2.50;;
12271;SDS011;6198;51.446;6.698;2022-09-01T06:36:42;8.53;;;2.57;;
12271;SDS011;6198;51.446;6.698;2022-09-01T06:39:09;7.70;;;2.33;;
12271;SDS011;6198;51.446;6.698;2022-09-01T06:41:43;8.53;;;3.03;;
12271;SDS011;6198;51.446;6.698;2022-09-01T06:44:10;5.40;;;2.17;;
12271;SDS011;6198;51.446;6.698;2022-09-01T06:46:35;6.80;;;2.10;;
12271;SDS011;6198;51.446;6.698;2022-09-01T06:49:01;6.57;;;2.40;;
12271;SDS011;6198;51.446;6.698;2022-09-01T06:51:27;10.67;;;2.87;;
12271;SDS011;6198;51.446;6.698;2022-09-01T06:53:54;11.60;;;3.10;;
12271;SDS011;6198;51.446;6.698;2022-09-01T06:56:27;5.70;;;2.20;;
12271;SDS011;6198;51.446;6.698;2022-09-01T06:58:55;5.10;;;2.20;;
12271;SDS011;6198;51.446;6.698;2022-09-01T07:01:21;3.03;;;1.93;;
12271;SDS011;6198;51.446;6.698;2022-09-01T07:03:49;7.30;;;2.40;;
12271;SDS011;6198;51.446;6.698;2022-09-01T07:06:16;5.80;;;2.00;;
12271;SDS011;6198;51.446;6.698;2022-09-01T07:08:43;3.60;;;2.03;;
12271;SDS011;6198;51.446;6.698;2022-09-01T07:11:17;3.00;;;2.23;;
12271;SDS011;6198;51.446;6.698;2022-09-01T07:13:47;4.80;;;1.90;;
12271;SDS011;6198;51.446;6.698;2022-09-01T07:16:17;5.93;;;2.80;;
12271;SDS011;6198;51.446;6.698;2022-09-01T07:18:46;5.83;;;2.43;;
12271;SDS011;6198;51.446;6.698;2022-09-01T07:21:12;6.90;;;2.40;;
12271;SDS011;6198;51.446;6.698;2022-09-01T07:23:38;3.53;;;2.20;;
12271;SDS011;6198;51.446;6.698;2022-09-01T07:26:04;8.40;;;2.30;;
12271;SDS011;6198;51.446;6.698;2022-09-01T07:28:31;5.67;;;2.23;;
12271;SDS011;6198;51.446;6.698;2022-09-01T07:30:57;4.17;;;2.00;;
12271;SDS011;6198;51.446;6.698;2022-09-01T07:33:23;8.30;;;2.57;;
12271;SDS011;6198;51.446;6.698;2022-09-01T07:35:49;3.30;;;2.47;;
12271;SDS011;6198;51.446;6.698;2022-09-01T07:38:19;3.83;;;2.10;;
12271;SDS011;6198;51.446;6.698;2022-09-01T07:40:45;5.73;;;1.90;;
12271;SDS011;6198;51.446;6.698;2022-09-01T07:43:15;3.57;;;2.00;;
12271;SDS011;6198;51.446;6.698;2022-09-01T07:45:46;8.00;;;2.67;;
12271;SDS011;6198;51.446;6.698;2022-09-01T07:48:13;6.63;;;2.10;;
12271;SDS011;6198;51.446;6.698;2022-09-01T07:50:44;6.90;;;2.00;;
12271;SDS011;6198;51.446;6.698;2022-09-01T07:53:14;5.47;;;2.00;;
12271;SDS011;6198;51.446;6.698;2022-09-01T07:55:44;3.97;;;1.90;;
12271;SDS011;6198;51.446;6.698;2022-09-01T07:58:11;5.07;;;2.10;;
12271;SDS011;6198;51.446;6.698;2022-09-01T08:00:40;3.80;;;2.20;;
12271;SDS011;6198;51.446;6.698;2022-09-01T08:03:14;6.00;;;1.73;;
12271;SDS011;6198;51.446;6.698;2022-09-01T08:05:40;8.50;;;1.90;;
12271;SDS011;6198;51.446;6.698;2022-09-01T08:08:07;6.40;;;2.43;;
12271;SDS011;6198;51.446;6.698;2022-09-01T08:10:33;7.33;;;1.77;;
12271;SDS011;6198;51.446;6.698;2022-09-01T08:12:59;4.97;;;1.90;;
12271;SDS011;6198;51.446;6.698;2022-09-01T08:15:25;7.60;;;2.37;;
12271;SDS011;6198;51.446;6.698;2022-09-01T08:17:51;3.40;;;1.73;;
12271;SDS011;6198;51.446;6.698;2022-09-01T08:20:17;3.03;;;1.67;;
12271;SDS011;6198;51.446;6.698;2022-09-01T08:22:43;3.70;;;1.83;;
12271;SDS011;6198;51.446;6.698;2022-09-01T08:25:09;3.20;;;1.80;;
12271;SDS011;6198;51.446;6.698;2022-09-01T08:27:35;6.47;;;2.00;;
12271;SDS011;6198;51.446;6.698;2022-09-01T08:30:03;2.90;;;1.80;;
12271;SDS011;6198;51.446;6.698;2022-09-01T08:32:31;4.67;;;1.67;;
12271;SDS011;6198;51.446;6.698;2022-09-01T08:34:57;3.70;;;1.80;;
12271;SDS011;6198;51.446;6.698;2022-09-01T08:37:23;5.60;;;1.60;;
12271;SDS011;6198;51.446;6.698;2022-09-01T08:39:49;3.47;;;1.83;;
12271;SDS011;6198;51.446;6.698;2022-09-01T08:47:39;5.03;;;1.90;;
12271;SDS011;6198;51.446;6.698;2022-09-01T08:50:05;3.47;;;1.97;;
12271;SDS011;6198;51.446;6.698;2022-09-01T08:57:51;5.67;;;1.67;;
12271;SDS011;6198;51.446;6.698;2022-09-01T09:00:22;4.53;;;1.70;;
12271;SDS011;6198;51.446;6.698;2022-09-01T09:08:12;5.77;;;1.70;;
12271;SDS011;6198;51.446;6.698;2022-09-01T09:10:42;3.27;;;1.57;;
12271;SDS011;6198;51.446;6.698;2022-09-01T09:13:31;5.07;;;1.60;;
12271;SDS011;6198;51.446;6.698;2022-09-01T09:17:00;1.50;;;1.40;;
12271;SDS011;6198;51.446;6.698;2022-09-01T09:19:03;3.87;;;1.50;;
12271;SDS011;6198;51.446;6.698;2022-09-01T09:21:33;2.63;;;1.53;;
12271;SDS011;6198;51.446;6.698;2022-09-01T09:26:32;1.50;;;1.40;;
12271;SDS011;6198;51.446;6.698;2022-09-01T09:28:58;2.63;;;1.70;;
12271;SDS011;6198;51.446;6.698;2022-09-01T09:31:34;4.33;;;1.67;;
12271;SDS011;6198;51.446;6.698;2022-09-01T09:34:02;2.63;;;1.40;;
12271;SDS011;6198;51.446;6.698;2022-09-01T09:36:33;1.10;;;1.10;;
12271;SDS011;6198;51.446;6.698;2022-09-01T09:39:04;3.30;;;1.60;;
12271;SDS011;6198;51.446;6.698;2022-09-01T09:41:30;3.07;;;1.30;;
12271;SDS011;6198;51.446;6.698;2022-09-01T09:44:02;1.50;;;1.40;;
12271;SDS011;6198;51.446;6.698;2022-09-01T09:46:38;3.03;;;1.20;;
12271;SDS011;6198;51.446;6.698;2022-09-01T09:49:17;5.13;;;1.50;;
12271;SDS011;6198;51.446;6.698;2022-09-01T09:51:45;1.57;;;1.47;;
12271;SDS011;6198;51.446;6.698;2022-09-01T09:56:39;1.77;;;1.23;;
12271;SDS011;6198;51.446;6.698;2022-09-01T09:59:21;4.53;;;1.60;;
12271;SDS011;6198;51.446;6.698;2022-09-01T10:01:48;3.50;;;1.50;;
12271;SDS011;6198;51.446;6.698;2022-09-01T10:04:29;5.17;;;1.40;;
12271;SDS011;6198;51.446;6.698;2022-09-01T10:06:56;3.13;;;1.33;;
12271;SDS011;6198;51.446;6.698;2022-09-01T10:11:50;3.73;;;1.40;;
12271;SDS011;6198;51.446;6.698;2022-09-01T10:14:20;4.37;;;2.33;;
12271;SDS011;6198;51.446;6.698;2022-09-01T10:16:49;2.03;;;1.60;;
12271;SDS011;6198;51.446;6.698;2022-09-01T10:19:17;3.73;;;1.50;;
12271;SDS011;6198;51.446;6.698;2022-09-01T10:21:44;1.90;;;1.30;;
12271;SDS011;6198;51.446;6.698;2022-09-01T10:24:21;1.67;;;1.40;;
12271;SDS011;6198;51.446;6.698;2022-09-01T10:26:52;2.27;;;1.67;;
12271;SDS011;6198;51.446;6.698;2022-09-01T10:29:30;3.00;;;1.53;;
12271;SDS011;6198;51.446;6.698;2022-09-01T10:31:59;3.27;;;1.80;;
12271;SDS011;6198;51.446;6.698;2022-09-01T10:34:27;6.80;;;1.90;;
12271;SDS011;6198;51.446;6.698;2022-09-01T10:36:55;2.67;;;1.47;;
12271;SDS011;6198;51.446;6.698;2022-09-01T10:39:22;1.97;;;1.47;;
12271;SDS011;6198;51.446;6.698;2022-09-01T10:41:52;1.60;;;1.47;;
12271;SDS011;6198;51.446;6.698;2022-09-01T10:44:24;3.10;;;1.50;;
12271;SDS011;6198;51.446;6.698;2022-09-01T10:46:54;2.03;;;1.53;;
12271;SDS011;6198;51.446;6.698;2022-09-01T10:51:53;2.10;;;1.70;;
12271;SDS011;6198;51.446;6.698;2022-09-01T10:57:11;1.97;;;1.57;;
12271;SDS011;6198;51.446;6.698;2022-09-01T10:59:45;6.20;;;1.70;;
12271;SDS011;6198;51.446;6.698;2022-09-01T11:02:15;1.87;;;1.60;;
12271;SDS011;6198;51.446;6.698;2022-09-01T11:09:45;3.87;;;1.57;;
12271;SDS011;6198;51.446;6.698;2022-09-01T11:17:20;3.40;;;1.83;;
12271;SDS011;6198;51.446;6.698;2022-09-01T11:30:07;3.07;;;1.53;;
12271;SDS011;6198;51.446;6.698;2022-09-01T11:32:34;3.63;;;1.90;;
12271;SDS011;6198;51.446;6.698;2022-09-01T11:35:02;2.40;;;1.50;;
12271;SDS011;6198;51.446;6.698;2022-09-01T11:37:30;2.70;;;1.63;;
12271;SDS011;6198;51.446;6.698;2022-09-01T11:39:57;2.03;;;1.77;;
12271;SDS011;6198;51.446;6.698;2022-09-01T11:42:25;2.63;;;1.43;;
12271;SDS011;6198;51.446;6.698;2022-09-01T11:44:54;3.47;;;1.80;;
12271;SDS011;6198;51.446;6.698;2022-09-01T11:47:27;5.17;;;1.70;;
12271;SDS011;6198;51.446;6.698;2022-09-01T11:50:07;3.33;;;1.57;;
12271;SDS011;6198;51.446;6.698;2022-09-01T11:52:34;3.73;;;1.83;;
12271;SDS011;6198;51.446;6.698;2022-09-01T11:55:02;2.63;;;1.97;;
12271;SDS011;6198;51.446;6.698;2022-09-01T11:57:30;3.10;;;1.57;;
12271;SDS011;6198;51.446;6.698;2022-09-01T11:59:57;2.80;;;1.93;;
12271;SDS011;6198;51.446;6.698;2022-09-01T12:02:25;4.23;;;1.93;;
12271;SDS011;6198;51.446;6.698;2022-09-01T12:04:52;1.67;;;1.57;;
12271;SDS011;6198;51.446;6.698;2022-09-01T12:08:03;3.47;;;2.07;;
12271;SDS011;6198;51.446;6.698;2022-09-01T12:12:59;4.27;;;1.80;;
12271;SDS011;6198;51.446;6.698;2022-09-01T12:15:25;5.10;;;1.90;;
12271;SDS011;6198;51.446;6.698;2022-09-01T12:17:52;3.87;;;1.77;;
12271;SDS011;6198;51.446;6.698;2022-09-01T12:20:19;5.30;;;1.93;;
12271;SDS011;6198;51.446;6.698;2022-09-01T12:22:45;2.77;;;1.90;;
12271;SDS011;6198;51.446;6.698;2022-09-01T12:25:19;2.30;;;1.77;;
12271;SDS011;6198;51.446;6.698;2022-09-01T12:27:46;2.60;;;1.80;;
12271;SDS011;6198;51.446;6.698;2022-09-01T12:30:12;2.57;;;1.70;;
12271;SDS011;6198;51.446;6.698;2022-09-01T12:32:38;3.00;;;1.67;;
12271;SDS011;6198;51.446;6.698;2022-09-01T12:35:04;4.97;;;1.83;;
12271;SDS011;6198;51.446;6.698;2022-09-01T12:37:40;3.87;;;1.90;;
12271;SDS011;6198;51.446;6.698;2022-09-01T12:40:05;2.10;;;1.90;;
12271;SDS011;6198;51.446;6.698;2022-09-01T12:42:49;3.30;;;2.30;;
12271;SDS011;6198;51.446;6.698;2022-09-01T12:45:34;2.07;;;1.77;;
12271;SDS011;6198;51.446;6.698;2022-09-01T12:48:00;4.40;;;1.80;;
12271;SDS011;6198;51.446;6.698;2022-09-01T12:52:55;5.23;;;2.40;;
12271;SDS011;6198;51.446;6.698;2022-09-01T12:55:30;3.23;;;1.73;;
12271;SDS011;6198;51.446;6.698;2022-09-01T12:58:00;5.83;;;2.33;;
12271;SDS011;6198;51.446;6.698;2022-09-01T13:00:27;3.80;;;2.03;;
12271;SDS011;6198;51.446;6.698;2022-09-01T13:03:14;2.67;;;1.80;;
12271;SDS011;6198;51.446;6.698;2022-09-01T13:05:46;6.87;;;2.03;;
12271;SDS011;6198;51.446;6.698;2022-09-01T13:08:20;3.20;;;2.10;;
12271;SDS011;6198;51.446;6.698;2022-09-01T13:10:50;5.17;;;2.47;;
12271;SDS011;6198;51.446;6.698;2022-09-01T13:13:17;3.13;;;1.80;;
12271;SDS011;6198;51.446;6.698;2022-09-01T13:15:44;2.33;;;1.80;;
12271;SDS011;6198;51.446;6.698;2022-09-01T13:18:14;4.97;;;2.17;;
12271;SDS011;6198;51.446;6.698;2022-09-01T13:20:40;5.57;;;2.40;;
12271;SDS011;6198;51.446;6.698;2022-09-01T13:23:07;2.23;;;1.87;;
12271;SDS011;6198;51.446;6.698;2022-09-01T13:25:33;2.03;;;1.83;;
12271;SDS011;6198;51.446;6.698;2022-09-01T13:27:59;2.07;;;1.87;;
12271;SDS011;6198;51.446;6.698;2022-09-01T13:30:27;3.90;;;2.10;;
12271;SDS011;6198;51.446;6.698;2022-09-01T13:32:53;2.33;;;1.97;;
12271;SDS011;6198;51.446;6.698;2022-09-01T13:35:20;2.10;;;1.90;;
12271;SDS011;6198;51.446;6.698;2022-09-01T13:37:46;3.80;;;1.80;;
12271;SDS011;6198;51.446;6.698;2022-09-01T13:40:13;4.00;;;1.70;;
12271;SDS011;6198;51.446;6.698;2022-09-01T13:42:50;3.47;;;1.70;;
12271;SDS011;6198;51.446;6.698;2022-09-01T13:45:18;3.37;;;1.90;;
12271;SDS011;6198;51.446;6.698;2022-09-01T13:47:45;3.87;;;1.97;;
12271;SDS011;6198;51.446;6.698;2022-09-01T13:50:12;8.47;;;2.10;;
12271;SDS011;6198;51.446;6.698;2022-09-01T13:52:39;2.30;;;2.10;;
12271;SDS011;6198;51.446;6.698;2022-09-01T13:55:06;4.13;;;1.90;;
12271;SDS011;6198;51.446;6.698;2022-09-01T13:57:32;2.43;;;1.80;;
12271;SDS011;6198;51.446;6.698;2022-09-01T13:59:59;4.27;;;1.80;;
12271;SDS011;6198;51.446;6.698;2022-09-01T14:02:25;3.47;;;2.03;;
12271;SDS011;6198;51.446;6.698;2022-09-01T14:04:51;2.50;;;1.80;;
12271;SDS011;6198;51.446;6.698;2022-09-01T14:07:17;2.60;;;1.90;;
12271;SDS011;6198;51.446;6.698;2022-09-01T14:09:43;1.70;;;1.60;;
12271;SDS011;6198;51.446;6.698;2022-09-01T14:12:09;5.87;;;1.80;;
12271;SDS011;6198;51.446;6.698;2022-09-01T14:14:36;2.60;;;2.30;;
12271;SDS011;6198;51.446;6.698;2022-09-01T14:17:02;4.97;;;2.07;;
12271;SDS011;6198;51.446;6.698;2022-09-01T14:19:28;3.33;;;2.00;;
12271;SDS011;6198;51.446;6.698;2022-09-01T14:21:55;7.10;;;2.23;;
12271;SDS011;6198;51.446;6.698;2022-09-01T14:24:21;5.50;;;2.13;;
12271;SDS011;6198;51.446;6.698;2022-09-01T14:26:47;3.00;;;2.23;;
12271;SDS011;6198;51.446;6.698;2022-09-01T14:29:14;2.30;;;2.10;;
12271;SDS011;6198;51.446;6.698;2022-09-01T14:31:40;5.03;;;1.80;;
12271;SDS011;6198;51.446;6.698;2022-09-01T14:34:07;3.87;;;1.90;;
12271;SDS011;6198;51.446;6.698;2022-09-01T14:36:36;2.63;;;2.13;;
12271;SDS011;6198;51.446;6.698;2022-09-01T14:39:02;8.17;;;2.30;;
12271;SDS011;6198;51.446;6.698;2022-09-01T14:41:29;4.53;;;1.97;;
12271;SDS011;6198;51.446;6.698;2022-09-01T14:43:55;4.37;;;2.33;;
12271;SDS011;6198;51.446;6.698;2022-09-01T14:46:26;2.23;;;1.60;;
12271;SDS011;6198;51.446;6.698;2022-09-01T14:48:54;4.67;;;1.90;;
12271;SDS011;6198;51.446;6.698;2022-09-01T14:51:24;3.80;;;2.50;;
12271;SDS011;6198;51.446;6.698;2022-09-01T14:53:51;5.20;;;1.90;;
12271;SDS011;6198;51.446;6.698;2022-09-01T14:56:17;1.77;;;1.67;;
12271;SDS011;6198;51.446;6.698;2022-09-01T14:58:46;3.57;;;1.90;;
12271;SDS011;6198;51.446;6.698;2022-09-01T15:01:13;2.80;;;2.20;;
12271;SDS011;6198;51.446;6.698;2022-09-01T15:03:40;2.60;;;1.93;;
12271;SDS011;6198;51.446;6.698;2022-09-01T15:06:07;4.13;;;1.80;;
12271;SDS011;6198;51.446;6.698;2022-09-01T15:08:35;3.30;;;1.90;;
12271;SDS011;6198;51.446;6.698;2022-09-01T15:11:01;2.30;;;1.90;;
12271;SDS011;6198;51.446;6.698;2022-09-01T15:13:27;2.93;;;2.20;;
12271;SDS011;6198;51.446;6.698;2022-09-01T15:15:53;2.00;;;1.80;;
12271;SDS011;6198;51.446;6.698;2022-09-01T15:18:19;4.50;;;2.00;;
12271;SDS011;6198;51.446;6.698;2022-09-01T15:20:45;2.17;;;1.83;;
12271;SDS011;6198;51.446;6.698;2022-09-01T15:23:14;2.93;;;1.90;;
12271;SDS011;6198;51.446;6.698;2022-09-01T15:25:40;3.83;;;1.90;;
12271;SDS011;6198;51.446;6.698;2022-09-01T15:28:06;2.43;;;1.60;;
12271;SDS011;6198;51.446;6.698;2022-09-01T15:30:32;3.23;;;1.90;;
12271;SDS011;6198;51.446;6.698;2022-09-01T15:32:59;4.53;;;1.90;;
12271;SDS011;6198;51.446;6.698;2022-09-01T15:35:26;5.57;;;1.90;;
12271;SDS011;6198;51.446;6.698;2022-09-01T15:37:52;4.90;;;1.73;;
12271;SDS011;6198;51.446;6.698;2022-09-01T15:40:19;2.77;;;1.80;;
12271;SDS011;6198;51.446;6.698;2022-09-01T15:42:45;3.60;;;2.10;;
12271;SDS011;6198;51.446;6.698;2022-09-01T15:45:12;2.00;;;1.80;;
12271;SDS011;6198;51.446;6.698;2022-09-01T15:47:39;2.13;;;1.70;;
12271;SDS011;6198;51.446;6.698;2022-09-01T15:50:07;2.00;;;1.80;;
12271;SDS011;6198;51.446;6.698;2022-09-01T15:52:33;2.37;;;2.00;;
12271;SDS011;6198;51.446;6.698;2022-09-01T15:54:59;4.27;;;2.30;;
12271;SDS011;6198;51.446;6.698;2022-09-01T15:57:26;2.03;;;1.90;;
12271;SDS011;6198;51.446;6.698;2022-09-01T15:59:52;2.40;;;1.60;;
12271;SDS011;6198;51.446;6.698;2022-09-01T16:02:19;1.67;;;1.57;;
12271;SDS011;6198;51.446;6.698;2022-09-01T16:04:50;2.67;;;1.83;;